Time;durP1;ratioP1;P1;durP2;ratioP2;P2;SDS_P1;SDS_P2;PMS_P1;PMS_P2;Temp;Humidity;BMP_temperature;BMP_pressure;BME280_temperature;BME280_humidity;BME280_pressure;Samples;Min_cycle;Max_cycle;Signal;HPM_P1;HPM_P2
2023/07/03 00:00:18;;;;;;;16.65;9.20;;;;;;;16.35;93.01;97932.75;4171814;28;20115;-73
2023/07/03 00:02:19;;;;;;;20.38;9.90;;;;;;;16.38;92.79;97931.88;4176242;28;20071;-74
2023/07/03 00:04:19;;;;;;;15.15;8.75;;;;;;;16.35;92.59;97930.75;4176731;28;20079;-74
2023/07/03 00:06:19;;;;;;;13.52;8.80;;;;;;;16.35;92.36;97929.97;4175153;28;20037;-74
2023/07/03 00:08:20;;;;;;;16.65;8.88;;;;;;;16.32;92.32;97934.41;4175184;28;20120;-73
2023/07/03 00:10:21;;;;;;;17.67;9.57;;;;;;;16.27;92.48;97927.31;4178067;28;20107;-74
2023/07/03 00:12:21;;;;;;;14.73;8.68;;;;;;;16.21;92.50;97925.44;4176312;28;20064;-74
2023/07/03 00:14:21;;;;;;;15.25;8.75;;;;;;;16.17;92.77;97925.53;4174146;28;20040;-74
2023/07/03 00:16:22;;;;;;;14.40;9.07;;;;;;;16.09;92.92;97934.47;4178258;28;20033;-74
2023/07/03 00:18:23;;;;;;;16.95;10.00;;;;;;;16.04;93.21;97932.94;4175727;28;20068;-74
2023/07/03 00:20:23;;;;;;;16.45;8.80;;;;;;;16.00;93.39;97927.44;4175694;28;20528;-74
2023/07/03 00:22:24;;;;;;;15.57;8.70;;;;;;;15.94;93.63;97925.56;4176357;28;20060;-73
2023/07/03 00:24:24;;;;;;;18.17;9.35;;;;;;;15.89;93.72;97924.09;4174545;28;20049;-73
2023/07/03 00:26:25;;;;;;;19.48;9.82;;;;;;;15.83;94.02;97933.38;4177673;28;20055;-74
2023/07/03 00:28:25;;;;;;;16.10;9.18;;;;;;;15.75;94.35;97923.56;4174491;28;20040;-73
2023/07/03 00:30:26;;;;;;;19.02;9.70;;;;;;;15.79;94.89;97933.41;4174029;28;20041;-74
2023/07/03 00:32:28;;;;;;;17.50;9.25;;;;;;;15.76;93.92;97922.34;4178494;28;20378;-74
2023/07/03 00:34:28;;;;;;;18.38;9.43;;;;;;;15.74;93.85;97931.13;4176074;28;20081;-74
2023/07/03 00:36:28;;;;;;;16.15;8.93;;;;;;;15.70;94.10;97922.03;4174376;28;20134;-74
2023/07/03 00:38:29;;;;;;;16.55;9.18;;;;;;;15.65;94.20;97926.09;4178153;28;20179;-74
2023/07/03 00:40:29;;;;;;;18.38;10.30;;;;;;;15.65;94.40;97925.31;4174357;28;20419;-74
2023/07/03 00:42:30;;;;;;;15.90;9.48;;;;;;;15.63;94.00;97920.16;4174134;28;20123;-74
2023/07/03 00:44:30;;;;;;;17.90;9.93;;;;;;;15.65;93.97;97923.31;4176470;28;20077;-73
2023/07/03 00:46:31;;;;;;;16.92;9.60;;;;;;;15.66;93.94;97922.09;4176156;28;20423;-73
2023/07/03 00:48:31;;;;;;;20.40;9.57;;;;;;;15.74;93.45;97922.75;4176600;28;20482;-74
2023/07/03 00:50:34;;;;;;;21.15;9.50;;;;;;;15.76;93.52;97925.13;4177443;28;20042;-74
2023/07/03 00:52:35;;;;;;;15.73;9.10;;;;;;;15.78;93.20;97929.06;4175365;28;20024;-73
2023/07/03 00:54:36;;;;;;;15.30;10.02;;;;;;;15.75;93.44;97917.97;4180857;28;20041;-74
2023/07/03 00:56:36;;;;;;;18.55;10.27;;;;;;;15.73;93.55;97913.63;4177815;28;20036;-74
2023/07/03 00:58:36;;;;;;;20.10;9.38;;;;;;;15.72;93.42;97917.63;4177497;28;20037;-74
2023/07/03 01:00:46;;;;;;;15.88;9.32;;;;;;;15.77;93.28;97919.13;4178312;28;20048;-73
2023/07/03 01:02:58;;;;;;;19.42;9.52;;;;;;;15.75;93.04;97915.19;4178041;28;20041;-74
2023/07/03 01:05:17;;;;;;;19.83;9.52;;;;;;;15.79;92.96;97922.25;4177671;28;20030;-74
2023/07/03 01:07:22;;;;;;;16.88;9.05;;;;;;;15.80;92.54;97920.25;4177169;28;20052;-74
2023/07/03 01:09:25;;;;;;;15.00;9.35;;;;;;;15.74;93.09;97914.41;4183205;28;20033;-74
2023/07/03 01:11:26;;;;;;;20.00;9.00;;;;;;;15.78;92.80;97920.69;4174723;28;20041;-74
2023/07/03 01:13:29;;;;;;;19.52;9.20;;;;;;;15.82;92.27;97912.25;4174938;28;20392;-74
2023/07/03 01:15:34;;;;;;;20.52;10.15;;;;;;;15.87;92.50;97917.34;4179237;28;20463;-73
2023/07/03 01:17:37;;;;;;;20.90;9.38;;;;;;;15.88;92.12;97907.75;4176919;28;20066;-74
2023/07/03 01:19:40;;;;;;;18.77;9.15;;;;;;;15.85;92.44;97908.63;4178259;28;20056;-74
2023/07/03 01:21:49;;;;;;;18.35;9.38;;;;;;;15.86;92.05;97910.97;4177204;28;20043;-74
2023/07/03 01:24:07;;;;;;;21.17;9.90;;;;;;;15.79;92.58;97913.09;4177505;28;20052;-74
2023/07/03 01:26:10;;;;;;;18.33;8.85;;;;;;;15.72;92.77;97911.22;4176934;28;20501;-74
2023/07/03 01:28:13;;;;;;;15.57;9.02;;;;;;;15.72;92.72;97916.81;4177687;28;20237;-73
2023/07/03 01:30:16;;;;;;;18.73;8.98;;;;;;;15.71;92.45;97904.06;4177124;28;20196;-74
2023/07/03 01:32:22;;;;;;;16.80;9.10;;;;;;;15.70;92.45;97914.44;4178468;28;20407;-74
2023/07/03 01:34:22;;;;;;;17.88;9.07;;;;;;;15.68;92.77;97902.94;4175899;28;20033;-74
2023/07/03 01:36:23;;;;;;;15.93;8.75;;;;;;;15.66;92.80;97913.72;4175690;28;20630;-74
2023/07/03 01:38:25;;;;;;;19.67;9.15;;;;;;;15.67;92.95;97903.38;4179612;28;20042;-74
2023/07/03 01:40:27;;;;;;;17.10;8.50;;;;;;;15.63;93.05;97911.00;4179377;28;20044;-74
2023/07/03 01:42:30;;;;;;;16.30;8.50;;;;;;;15.60;93.42;97918.19;4178570;28;20037;-74
2023/07/03 01:44:30;;;;;;;;;;;;;;;15.59;93.74;97913.03;4181167;28;20072;-74
2023/07/03 01:46:30;;;;;;;16.27;8.93;;;;;;;15.61;93.33;97913.44;4177660;28;19925;-74
2023/07/03 01:48:32;;;;;;;15.15;8.80;;;;;;;15.58;93.66;97914.25;4178726;28;20041;-74
2023/07/03 01:50:33;;;;;;;21.70;8.70;;;;;;;15.51;93.65;97906.81;4177012;28;20044;-74
2023/07/03 01:52:40;;;;;;;16.98;9.05;;;;;;;15.51;93.83;97906.81;4177898;28;20449;-73
2023/07/03 01:55:39;;;;;;;15.65;8.20;;;;;;;15.51;94.07;97917.16;4177115;28;20126;-74
2023/07/03 01:57:58;;;;;;;17.05;8.63;;;;;;;15.42;94.01;97910.13;4097277;28;20078;-74
2023/07/03 02:00:03;;;;;;;16.38;8.18;;;;;;;15.37;94.33;97907.03;4099665;28;20070;-74
2023/07/03 02:02:15;;;;;;;16.10;8.13;;;;;;;15.32;94.80;97913.09;4107719;28;20527;-74
2023/07/03 02:04:32;;;;;;;15.15;7.82;;;;;;;15.26;94.85;97915.56;4176778;28;20679;-74
2023/07/03 02:06:43;;;;;;;18.45;8.77;;;;;;;15.20;95.31;97920.03;4176199;28;20163;-74
2023/07/03 02:08:44;;;;;;;16.85;8.95;;;;;;;15.14;95.07;97916.16;4179269;28;20060;-74
2023/07/03 02:10:45;;;;;;;18.50;9.07;;;;;;;15.09;95.57;97909.06;4178830;28;20149;-74
2023/07/03 02:12:46;;;;;;;17.25;8.68;;;;;;;15.06;95.42;97918.28;4176103;28;20404;-74
2023/07/03 02:14:46;;;;;;;19.42;8.10;;;;;;;15.04;95.86;97912.34;4179415;28;20508;-73
2023/07/03 02:16:47;;;;;;;16.45;8.40;;;;;;;15.08;95.03;97924.22;4178186;28;20048;-74
2023/07/03 02:18:47;;;;;;;15.52;8.05;;;;;;;15.05;95.49;97924.25;4176549;28;20052;-74
2023/07/03 02:20:51;;;;;;;18.10;9.13;;;;;;;15.03;95.51;97927.47;4179093;28;20405;-74
2023/07/03 02:22:51;;;;;;;16.80;8.88;;;;;;;14.99;95.42;97923.97;4174887;28;20058;-74
2023/07/03 02:24:52;;;;;;;18.75;8.85;;;;;;;14.97;95.53;97933.94;4176556;28;20044;-74
2023/07/03 02:26:52;;;;;;;18.67;8.27;;;;;;;14.91;95.73;97928.06;4175070;28;20509;-74
2023/07/03 02:28:53;;;;;;;18.30;8.43;;;;;;;14.88;95.94;97938.03;4177039;28;20044;-74
2023/07/03 02:30:53;;;;;;;16.70;8.00;;;;;;;14.88;95.85;97940.03;4177242;28;20378;-74
2023/07/03 02:32:53;;;;;;;17.90;8.57;;;;;;;14.82;96.20;97933.38;4178171;28;20041;-74
2023/07/03 02:34:54;;;;;;;17.02;8.85;;;;;;;14.82;95.82;97938.94;4176807;28;20039;-74
2023/07/03 02:36:58;;;;;;;22.90;8.85;;;;;;;14.93;95.19;97933.22;4176737;28;20072;-74
2023/07/03 02:38:59;;;;;;;22.25;8.27;;;;;;;14.88;95.54;97926.88;4178662;28;20337;-73
2023/07/03 02:40:59;;;;;;;14.85;8.40;;;;;;;14.93;95.29;97938.78;4175003;28;20133;-74
2023/07/03 02:42:59;;;;;;;18.42;8.40;;;;;;;14.91;95.38;97936.41;4175506;28;20037;-74
2023/07/03 02:45:00;;;;;;;19.73;8.63;;;;;;;14.85;95.73;97941.66;4178188;28;20025;-73
2023/07/03 02:47:00;;;;;;;20.88;9.70;;;;;;;14.82;95.91;97934.16;4176385;28;20595;-74
2023/07/03 02:49:00;;;;;;;17.88;8.07;;;;;;;14.78;96.04;97938.19;4177601;28;20025;-74
2023/07/03 02:51:01;;;;;;;15.38;8.40;;;;;;;14.74;96.29;97938.25;4177941;28;20176;-74
2023/07/03 02:53:01;;;;;;;16.70;8.45;;;;;;;14.68;96.26;97933.56;4173943;28;20852;-74
2023/07/03 02:55:02;;;;;;;15.60;7.80;;;;;;;14.66;96.32;97939.56;4178978;28;20091;-74
2023/07/03 02:57:03;;;;;;;17.83;8.13;;;;;;;14.65;96.28;97934.41;4175418;28;20036;-74
2023/07/03 02:59:03;;;;;;;20.95;8.73;;;;;;;14.66;96.33;97947.13;4177852;28;20037;-74
2023/07/03 03:01:04;;;;;;;18.17;7.95;;;;;;;14.65;96.26;97937.19;4180002;28;20078;-74
2023/07/03 03:03:05;;;;;;;18.40;8.25;;;;;;;14.64;96.64;97928.03;4174641;28;20060;-74
2023/07/03 03:05:05;;;;;;;21.30;8.25;;;;;;;14.64;96.35;97935.59;4177580;28;20033;-74
2023/07/03 03:07:06;;;;;;;15.85;8.32;;;;;;;14.59;96.50;97940.44;4177474;28;20047;-74
2023/07/03 03:09:07;;;;;;;16.85;7.78;;;;;;;14.51;96.74;97930.59;4174902;28;20069;-74
2023/07/03 03:11:08;;;;;;;17.25;7.95;;;;;;;14.54;96.69;97940.09;4172770;28;20450;-74
2023/07/03 03:13:08;;;;;;;17.58;7.90;;;;;;;14.53;97.16;97932.94;4176378;28;20041;-74
2023/07/03 03:15:08;;;;;;;18.05;8.18;;;;;;;14.53;96.96;97941.31;4175482;28;20160;-74
2023/07/03 03:17:09;;;;;;;20.27;8.43;;;;;;;14.51;97.27;97940.94;4174641;28;20063;-74
2023/07/03 03:19:09;;;;;;;16.98;8.45;;;;;;;14.52;96.84;97942.50;4174339;28;20052;-73
2023/07/03 03:21:10;;;;;;;13.35;7.47;;;;;;;14.54;97.09;97938.09;4179864;28;20154;-74
2023/07/03 03:23:10;;;;;;;17.55;8.35;;;;;;;14.53;96.91;97942.09;4175271;28;20036;-74
2023/07/03 03:25:10;;;;;;;14.48;7.68;;;;;;;14.47;97.27;97943.75;4174874;28;20041;-74
2023/07/03 03:27:11;;;;;;;21.15;7.88;;;;;;;14.48;97.01;97936.19;4178839;28;20040;-74
2023/07/03 03:29:11;;;;;;;22.98;8.50;;;;;;;14.52;97.26;97953.66;4175659;28;20040;-74
2023/07/03 03:31:12;;;;;;;22.42;8.43;;;;;;;14.48;97.38;97950.09;4172531;28;20062;-74
2023/07/03 03:33:12;;;;;;;15.30;7.75;;;;;;;14.43;97.46;97945.00;4175891;28;20531;-74
2023/07/03 03:35:12;;;;;;;15.48;7.90;;;;;;;14.37;97.96;97949.44;4172920;28;20047;-74
2023/07/03 03:37:13;;;;;;;16.13;7.32;;;;;;;14.33;98.48;97949.47;4172509;28;20051;-74
2023/07/03 03:39:13;;;;;;;16.85;8.27;;;;;;;14.32;98.31;97961.81;4175645;28;20049;-73
2023/07/03 03:41:13;;;;;;;17.00;8.88;;;;;;;14.31;98.38;97960.22;4175445;28;20066;-74
2023/07/03 03:43:14;;;;;;;20.35;7.95;;;;;;;14.34;98.46;97956.63;4171543;28;20476;-74
2023/07/03 03:45:14;;;;;;;15.55;7.88;;;;;;;14.44;98.43;97963.25;4175105;28;20075;-74
2023/07/03 03:47:14;;;;;;;17.20;7.72;;;;;;;14.46;98.68;97961.66;4177027;28;20079;-74
2023/07/03 03:49:15;;;;;;;19.42;8.13;;;;;;;14.51;98.42;97966.00;4175068;28;20037;-74
2023/07/03 03:51:15;;;;;;;15.45;7.57;;;;;;;14.51;98.09;97966.78;4178805;28;20643;-74
2023/07/03 03:53:16;;;;;;;22.42;7.88;;;;;;;14.49;98.40;97971.19;4174131;28;20041;-74
2023/07/03 03:55:16;;;;;;;17.63;8.07;;;;;;;14.51;98.31;97975.13;4178967;28;20141;-74
2023/07/03 03:57:16;;;;;;;16.33;8.15;;;;;;;14.50;98.51;97972.78;4178605;28;20542;-74
2023/07/03 03:59:17;;;;;;;17.88;8.35;;;;;;;14.51;98.07;97975.13;4174265;28;20108;-74
2023/07/03 04:01:18;;;;;;;16.02;7.82;;;;;;;14.50;98.67;97979.13;4177588;28;20036;-74
2023/07/03 04:03:19;;;;;;;17.87;7.57;;;;;;;14.56;98.79;97982.22;4175328;28;20032;-74
2023/07/03 04:05:19;;;;;;;17.10;7.90;;;;;;;14.56;98.63;97971.91;4177502;28;20534;-74
2023/07/03 04:07:19;;;;;;;15.73;7.03;;;;;;;14.56;98.40;97979.44;4177123;28;20200;-74
2023/07/03 04:09:20;;;;;;;14.60;7.65;;;;;;;14.52;99.17;97973.91;4182904;28;20527;-74
2023/07/03 04:11:20;;;;;;;20.65;7.68;;;;;;;14.52;99.01;97987.84;4174943;28;20076;-74
2023/07/03 04:13:20;;;;;;;21.42;8.05;;;;;;;14.58;98.75;97980.63;4185843;28;20043;-74
2023/07/03 04:15:24;;;;;;;18.02;6.97;;;;;;;14.58;98.74;97977.03;4188139;28;20372;-73
2023/07/03 04:17:25;;;;;;;18.10;7.75;;;;;;;14.60;98.65;97975.41;4172426;28;20072;-74
2023/07/03 04:19:28;;;;;;;16.25;7.35;;;;;;;14.71;97.93;97969.69;4186732;28;20051;-73
2023/07/03 04:21:28;;;;;;;15.55;7.10;;;;;;;14.71;97.52;97969.69;4172911;28;20452;-74
2023/07/03 04:23:29;;;;;;;13.95;7.25;;;;;;;14.76;97.92;97974.03;4182580;28;20068;-74
2023/07/03 04:25:30;;;;;;;16.58;7.28;;;;;;;14.78;96.88;97972.38;4182362;28;20077;-73
2023/07/03 04:27:30;;;;;;;27.60;7.50;;;;;;;14.82;97.00;97966.78;4175761;28;20041;-73
2023/07/03 04:29:31;;;;;;;14.57;6.63;;;;;;;14.88;96.37;97970.66;4188751;28;20063;-74
2023/07/03 04:31:33;;;;;;;15.07;7.18;;;;;;;14.94;96.06;97965.41;4177759;28;20071;-74
2023/07/03 04:33:34;;;;;;;14.60;6.68;;;;;;;14.92;95.37;97971.41;4174602;28;20049;-74
2023/07/03 04:35:36;;;;;;;13.70;6.18;;;;;;;14.93;94.72;97969.41;4175761;28;20044;-74
2023/07/03 04:37:37;;;;;;;12.88;6.72;;;;;;;14.89;94.60;97972.25;4176065;28;20839;-74
2023/07/03 04:39:37;;;;;;;15.38;6.43;;;;;;;14.91;94.17;97963.50;4189878;28;20041;-74
2023/07/03 04:41:37;;;;;;;14.85;6.85;;;;;;;14.93;94.17;97967.41;4176065;28;20036;-74
2023/07/03 04:43:44;;;;;;;17.58;6.70;;;;;;;14.96;94.13;97974.13;4174251;28;20048;-74
2023/07/03 04:45:50;;;;;;;18.05;7.53;;;;;;;15.03;93.63;97968.47;4179275;28;20053;-74
2023/07/03 04:47:53;;;;;;;13.95;6.63;;;;;;;15.06;93.00;97962.88;4175165;28;20585;-74
2023/07/03 04:49:55;;;;;;;16.23;6.40;;;;;;;15.16;92.74;97963.91;4176522;28;20052;-74
2023/07/03 04:51:55;;;;;;;18.27;6.18;;;;;;;15.25;92.54;97969.75;4176146;28;20435;-74
2023/07/03 04:54:00;;;;;;;12.18;5.72;;;;;;;15.33;92.17;97965.63;4174155;28;20037;-74
2023/07/03 04:56:00;;;;;;;19.52;6.40;;;;;;;15.40;91.53;97961.94;4094607;27;20042;-74
2023/07/03 04:58:01;;;;;;;14.77;5.97;;;;;;;15.47;91.23;97956.22;4186816;28;20428;-74
2023/07/03 05:00:02;;;;;;;15.10;6.50;;;;;;;15.59;90.28;97963.22;4179021;28;20044;-75
2023/07/03 05:02:03;;;;;;;13.90;6.32;;;;;;;15.66;89.92;97958.34;4175137;28;20054;-75
2023/07/03 05:04:03;;;;;;;13.73;6.10;;;;;;;15.80;90.34;97965.66;4174757;28;20081;-74
2023/07/03 05:06:04;;;;;;;13.32;7.28;;;;;;;15.84;89.67;97969.19;4174795;28;20083;-74
2023/07/03 05:08:05;;;;;;;14.45;6.10;;;;;;;15.86;89.32;97972.34;4177559;28;20027;-75
2023/07/03 05:10:07;;;;;;;14.70;6.45;;;;;;;15.82;88.97;97970.84;4178669;28;20024;-74
2023/07/03 05:12:08;;;;;;;13.90;5.55;;;;;;;15.77;89.61;97960.94;4174928;28;20047;-75
2023/07/03 05:14:08;;;;;;;14.90;5.72;;;;;;;15.73;88.74;97969.38;4174851;28;20025;-74
2023/07/03 05:16:09;;;;;;;15.07;6.63;;;;;;;15.86;88.28;97963.97;4189775;28;20099;-74
2023/07/03 05:18:09;;;;;;;13.82;6.40;;;;;;;15.96;88.57;97976.94;4185587;28;20053;-74
2023/07/03 05:20:12;;;;;;;13.98;6.10;;;;;;;16.06;87.13;97975.19;4176564;28;20036;-74
2023/07/03 05:22:13;;;;;;;13.52;5.90;;;;;;;16.09;87.10;97979.91;4177468;28;20426;-74
2023/07/03 05:24:13;;;;;;;11.93;6.25;;;;;;;16.05;87.58;97992.34;4174463;28;20120;-74
2023/07/03 05:26:13;;;;;;;15.45;6.40;;;;;;;16.00;88.02;97988.84;4175587;28;20029;-74
2023/07/03 05:28:14;;;;;;;11.60;5.97;;;;;;;15.96;87.87;97982.50;4177663;28;20032;-74
2023/07/03 05:30:15;;;;;;;12.13;6.47;;;;;;;15.88;87.74;97980.28;4178506;28;20472;-74
2023/07/03 05:32:15;;;;;;;11.85;5.78;;;;;;;15.87;87.64;97976.69;4174998;28;20039;-74
2023/07/03 05:34:15;;;;;;;14.30;6.05;;;;;;;15.94;88.19;97990.53;4173767;28;20044;-74
2023/07/03 05:36:16;;;;;;;13.45;5.43;;;;;;;15.99;86.86;97981.69;4172395;28;20108;-74
2023/07/03 05:38:18;;;;;;;12.73;5.78;;;;;;;16.12;87.78;97981.84;4173919;28;20029;-74
2023/07/03 05:40:19;;;;;;;15.17;6.07;;;;;;;16.19;88.33;97994.88;4174528;28;20033;-74
2023/07/03 05:42:20;;;;;;;18.42;6.45;;;;;;;16.22;86.15;97989.25;4174643;28;20025;-74
2023/07/03 05:44:20;;;;;;;15.50;5.28;;;;;;;16.32;85.94;97995.03;4174640;28;20048;-74
2023/07/03 05:46:20;;;;;;;15.93;5.97;;;;;;;16.28;85.57;97995.88;4178826;28;20049;-74
2023/07/03 05:48:21;;;;;;;10.32;5.63;;;;;;;16.22;86.64;97991.25;4174499;28;20448;-74
2023/07/03 05:50:21;;;;;;;15.85;6.10;;;;;;;16.21;87.12;97993.22;4174807;28;20041;-74
2023/07/03 05:52:21;;;;;;;12.93;6.30;;;;;;;16.16;87.34;98002.09;4174486;28;20336;-73
2023/07/03 05:54:22;;;;;;;11.52;5.35;;;;;;;16.23;87.02;97999.19;4174664;28;20112;-74
2023/07/03 05:56:26;;;;;;;12.38;5.03;;;;;;;16.33;85.70;98000.19;4174814;28;20056;-74
2023/07/03 05:58:27;;;;;;;11.95;5.25;;;;;;;16.43;86.15;98001.19;4173616;28;20473;-73
2023/07/03 06:00:30;;;;;;;11.82;4.97;;;;;;;16.51;85.74;97995.03;4174622;28;20033;-73
2023/07/03 06:02:31;;;;;;;17.08;5.55;;;;;;;16.53;86.83;98003.78;4174110;28;20037;-74
2023/07/03 06:04:33;;;;;;;16.05;5.57;;;;;;;16.64;86.27;98009.16;4174320;28;20044;-74
2023/07/03 06:06:34;;;;;;;13.23;5.72;;;;;;;16.85;85.17;98008.72;4174730;28;20127;-74
2023/07/03 06:08:34;;;;;;;19.15;6.30;;;;;;;17.01;85.53;98008.00;4176497;28;20045;-74
2023/07/03 06:10:35;;;;;;;14.85;5.60;;;;;;;17.21;83.81;98018.34;4181880;28;20500;-74
2023/07/03 06:12:35;;;;;;;12.63;5.57;;;;;;;17.27;83.40;98020.19;4180963;28;20508;-74
2023/07/03 06:14:35;;;;;;;16.42;5.07;;;;;;;17.21;81.99;98009.97;4189299;28;20033;-74
2023/07/03 06:16:37;;;;;;;9.13;4.55;;;;;;;17.31;82.48;98018.13;4189165;28;20483;-74
2023/07/03 06:18:37;;;;;;;16.65;4.93;;;;;;;17.35;82.37;98015.22;4175624;28;20033;-74
2023/07/03 06:20:38;;;;;;;9.20;4.40;;;;;;;17.50;81.67;98022.06;4189322;28;20472;-74
2023/07/03 06:22:39;;;;;;;9.10;4.47;;;;;;;17.65;80.25;98028.13;4188075;28;20041;-74
2023/07/03 06:24:40;;;;;;;12.87;4.60;;;;;;;17.64;80.67;98023.75;4189554;28;20315;-74
2023/07/03 06:26:43;;;;;;;13.38;4.78;;;;;;;17.66;79.49;98018.50;4187908;28;20495;-74
2023/07/03 06:28:43;;;;;;;15.77;5.40;;;;;;;17.62;78.71;98028.97;4178703;28;20041;-74
2023/07/03 06:30:48;;;;;;;15.00;5.07;;;;;;;17.57;79.68;98023.94;4188438;28;20568;-74
2023/07/03 06:32:48;;;;;;;15.15;4.57;;;;;;;17.57;79.66;98021.13;4178787;28;20102;-74
2023/07/03 06:34:49;;;;;;;17.20;5.15;;;;;;;17.64;79.19;98032.16;4173839;28;20040;-74
2023/07/03 06:36:49;;;;;;;10.98;4.57;;;;;;;17.63;78.37;98028.56;4174123;28;20119;-74
2023/07/03 06:38:55;;;;;;;8.98;4.22;;;;;;;17.57;78.59;98021.91;4174520;28;20468;-74
2023/07/03 06:40:59;;;;;;;10.43;4.43;;;;;;;17.59;79.38;98032.66;4174405;28;21007;-74
2023/07/03 06:42:59;;;;;;;12.18;4.07;;;;;;;17.60;79.85;98028.63;4173778;28;20380;-74
2023/07/03 06:44:59;;;;;;;15.73;4.82;;;;;;;17.65;78.08;98037.31;4174211;28;20056;-74
2023/07/03 06:47:00;;;;;;;12.00;3.97;;;;;;;17.56;78.92;98033.53;4173719;28;20428;-74
2023/07/03 06:49:00;;;;;;;12.82;4.10;;;;;;;17.61;79.54;98038.59;4173718;28;20053;-74
2023/07/03 06:51:06;;;;;;;11.30;4.70;;;;;;;17.65;79.55;98042.13;4177151;28;20039;-74
2023/07/03 06:53:06;;;;;;;9.90;3.97;;;;;;;17.64;77.60;98035.72;4181644;28;20057;-74
2023/07/03 06:55:07;;;;;;;9.55;4.22;;;;;;;17.69;77.66;98042.81;4173752;28;20201;-74
2023/07/03 06:57:07;;;;;;;15.27;4.35;;;;;;;17.80;76.14;98045.41;4174261;28;20709;-74
2023/07/03 06:59:07;;;;;;;9.63;3.97;;;;;;;17.86;76.48;98044.41;4173600;28;20468;-74
2023/07/03 07:01:11;;;;;;;9.88;3.65;;;;;;;17.88;75.56;98050.38;4173454;28;20044;-74
2023/07/03 07:03:12;;;;;;;14.73;4.63;;;;;;;17.87;75.74;98045.19;4173063;28;20580;-74
2023/07/03 07:05:12;;;;;;;10.85;4.53;;;;;;;17.94;78.29;98045.03;4173867;28;20144;-74
2023/07/03 07:07:12;;;;;;;10.18;4.78;;;;;;;17.99;75.80;98049.31;4173665;28;20120;-74
2023/07/03 07:09:13;;;;;;;11.95;4.05;;;;;;;17.96;76.56;98051.00;4173424;28;20068;-74
2023/07/03 07:11:19;;;;;;;11.68;4.38;;;;;;;17.89;75.31;98054.75;4173880;28;20072;-74
2023/07/03 07:13:19;;;;;;;10.05;3.95;;;;;;;17.72;74.59;98046.78;4173667;28;20106;-74
2023/07/03 07:15:20;;;;;;;15.90;5.18;;;;;;;17.84;75.53;98046.06;4172755;28;20128;-74
2023/07/03 07:17:21;;;;;;;9.02;3.95;;;;;;;17.91;74.35;98045.91;4173491;28;20481;-74
2023/07/03 07:19:22;;;;;;;11.35;4.10;;;;;;;17.74;73.95;98047.91;4173612;28;20178;-74
2023/07/03 07:21:23;;;;;;;8.32;3.25;;;;;;;17.74;74.69;98045.13;4180341;28;20052;-74
2023/07/03 07:23:23;;;;;;;13.57;3.78;;;;;;;17.45;74.40;98044.97;4172871;28;20485;-74
2023/07/03 07:25:24;;;;;;;11.43;3.92;;;;;;;17.32;75.67;98047.66;4173013;28;20084;-74
2023/07/03 07:27:24;;;;;;;11.98;4.32;;;;;;;17.33;75.70;98048.44;4173757;28;20129;-74
2023/07/03 07:29:25;;;;;;;12.77;3.83;;;;;;;17.34;75.69;98047.22;4173297;28;20044;-74
2023/07/03 07:31:28;;;;;;;9.13;3.70;;;;;;;17.26;75.14;98043.00;4186761;28;20036;-73
2023/07/03 07:33:28;;;;;;;14.57;4.60;;;;;;;17.32;76.34;98046.88;4187576;28;20036;-74
2023/07/03 07:35:28;;;;;;;9.77;3.92;;;;;;;17.09;75.86;98051.34;4181820;28;20106;-74
2023/07/03 07:37:28;;;;;;;12.05;3.55;;;;;;;16.89;76.77;98047.78;4173223;28;20072;-74
2023/07/03 07:39:30;;;;;;;9.52;3.42;;;;;;;16.96;77.90;98042.03;4185473;28;20078;-74
2023/07/03 07:41:31;;;;;;;8.98;3.25;;;;;;;17.11;77.14;98045.31;4173560;28;20076;-74
2023/07/03 07:43:32;;;;;;;9.07;3.85;;;;;;;17.13;76.27;98048.50;4172358;28;20119;-74
2023/07/03 07:45:33;;;;;;;13.90;4.13;;;;;;;17.27;77.10;98042.56;4173540;28;20487;-74
2023/07/03 07:47:33;;;;;;;11.57;4.10;;;;;;;17.41;76.62;98049.84;4173286;28;20044;-73
2023/07/03 07:49:34;;;;;;;27.73;3.97;;;;;;;17.52;75.76;98050.38;4182153;28;20028;-74
2023/07/03 07:51:34;;;;;;;12.20;4.53;;;;;;;17.59;75.06;98046.66;4182771;28;20064;-74
2023/07/03 07:53:34;;;;;;;16.67;3.97;;;;;;;17.58;76.33;98043.06;4187532;28;20045;-74
2023/07/03 07:55:38;;;;;;;11.90;4.28;;;;;;;17.62;76.42;98045.75;4187185;28;20391;-74
2023/07/03 07:57:39;;;;;;;11.40;3.90;;;;;;;17.63;74.61;98038.97;4173248;28;20538;-74
2023/07/03 07:59:40;;;;;;;12.48;3.97;;;;;;;17.69;75.49;98045.59;4172057;28;20138;-74
2023/07/03 08:01:40;;;;;;;11.13;4.00;;;;;;;17.72;76.12;98036.38;4173259;28;20049;-74
2023/07/03 08:03:41;;;;;;;12.85;4.47;;;;;;;17.99;76.72;98040.91;4172820;28;20124;-74
2023/07/03 08:05:42;;;;;;;8.85;3.92;;;;;;;18.21;75.86;98037.13;4172637;28;20072;-73
2023/07/03 08:07:42;;;;;;;12.57;3.88;;;;;;;18.41;75.03;98042.59;4173209;28;20072;-74
2023/07/03 08:09:43;;;;;;;11.13;3.80;;;;;;;18.59;73.48;98030.13;4172892;28;20517;-74
2023/07/03 08:11:44;;;;;;;8.18;4.05;;;;;;;18.81;73.66;98036.75;4172753;28;20049;-74
2023/07/03 08:13:44;;;;;;;11.85;3.83;;;;;;;18.88;72.57;98035.75;4171770;28;20071;-74
2023/07/03 08:15:45;;;;;;;12.60;4.00;;;;;;;19.15;71.98;98036.13;4173103;28;20520;-74
2023/07/03 08:17:45;;;;;;;9.82;3.67;;;;;;;19.05;72.40;98043.66;4173287;28;20491;-74
2023/07/03 08:19:46;;;;;;;13.55;3.92;;;;;;;18.92;72.11;98034.41;4176709;28;20333;-74
2023/07/03 08:21:46;;;;;;;10.55;3.63;;;;;;;19.06;73.74;98034.00;4186852;28;20037;-74
2023/07/03 08:23:46;;;;;;;10.10;3.72;;;;;;;19.09;71.22;98038.69;4185462;28;20300;-73
2023/07/03 08:25:51;;;;;;;10.30;4.07;;;;;;;19.05;70.98;98034.44;4172433;28;20483;-74
2023/07/03 08:27:52;;;;;;;7.40;3.28;;;;;;;19.15;70.85;98026.94;4172211;28;20473;-73
2023/07/03 08:29:52;;;;;;;11.05;3.53;;;;;;;18.88;68.43;98039.34;4172591;28;20168;-74
2023/07/03 08:31:52;;;;;;;11.70;4.63;;;;;;;18.84;69.14;98033.03;4172832;28;20083;-73
2023/07/03 08:33:53;;;;;;;8.57;3.53;;;;;;;18.82;69.00;98037.53;4172242;28;20083;-74
2023/07/03 08:35:53;;;;;;;9.55;3.70;;;;;;;18.89;70.18;98046.53;4172826;28;20451;-74
2023/07/03 08:37:54;;;;;;;10.40;4.38;;;;;;;18.90;68.35;98034.06;4185844;28;20503;-74
2023/07/03 08:39:55;;;;;;;9.13;3.58;;;;;;;19.07;67.87;98031.97;4174977;28;20065;-74
2023/07/03 08:42:02;;;;;;;10.23;3.40;;;;;;;19.06;64.45;98038.81;4182448;28;20425;-74
2023/07/03 08:44:03;;;;;;;6.72;3.10;;;;;;;19.05;65.29;98048.47;4181531;28;20059;-74
2023/07/03 08:46:08;;;;;;;10.13;3.42;;;;;;;19.11;66.38;98041.06;4178301;28;20489;-74
2023/07/03 08:48:24;;;;;;;6.38;3.08;;;;;;;19.22;65.76;98044.34;4172587;28;20052;-74
2023/07/03 08:50:24;;;;;;;8.93;3.17;;;;;;;19.19;66.77;98045.22;4180270;28;20052;-73
2023/07/03 08:52:57;;;;;;;6.63;2.92;;;;;;;19.08;66.05;98048.34;4187203;28;20039;-74
2023/07/03 08:54:58;;;;;;;5.60;2.53;;;;;;;19.39;65.74;98042.22;4171255;28;20036;-74
2023/07/03 08:57:00;;;;;;;6.63;2.70;;;;;;;19.40;66.34;98040.22;4172475;28;20075;-74
2023/07/03 08:59:03;;;;;;;10.50;2.80;;;;;;;19.36;64.30;98051.53;4172896;28;20037;-74
2023/07/03 09:01:22;;;;;;;7.70;3.10;;;;;;;19.31;66.55;98041.66;4172469;28;20047;-74
2023/07/03 09:03:33;;;;;;;6.25;2.80;;;;;;;19.34;66.36;98051.19;4171899;28;20051;-74
2023/07/03 09:05:43;;;;;;;8.20;2.97;;;;;;;19.34;64.03;98051.97;4172378;28;20132;-74
2023/07/03 09:07:53;;;;;;;6.72;2.70;;;;;;;19.26;64.33;98056.22;4175156;28;20089;-73
2023/07/03 09:10:11;;;;;;;9.30;3.03;;;;;;;19.19;64.41;98053.63;4187483;28;20072;-73
2023/07/03 09:12:21;;;;;;;7.60;2.92;;;;;;;19.24;65.91;98053.09;4175567;28;20037;-74
2023/07/03 09:14:27;;;;;;;6.07;2.65;;;;;;;19.31;65.18;98058.50;4174846;28;20068;-74
2023/07/03 09:16:27;;;;;;;8.68;3.13;;;;;;;19.25;62.88;98054.66;4186097;28;20048;-74
2023/07/03 09:18:34;;;;;;;8.68;3.08;;;;;;;19.25;61.86;98073.50;4188978;28;20067;-74
2023/07/03 09:20:35;;;;;;;10.95;3.08;;;;;;;19.30;62.51;98058.94;4190966;28;20040;-74
2023/07/03 09:22:57;;;;;;;7.63;3.28;;;;;;;19.41;63.44;98061.41;4189529;28;20044;-74
2023/07/03 09:25:02;;;;;;;8.80;3.08;;;;;;;19.39;63.06;98066.69;4180577;28;20087;-74
2023/07/03 09:27:19;;;;;;;6.93;3.17;;;;;;;19.40;61.30;98082.28;4177637;28;20040;-74
2023/07/03 09:29:20;;;;;;;10.20;2.92;;;;;;;19.48;60.24;98069.63;4185385;28;20051;-74